sensor_id;sensor_type;location;lat;lon;timestamp;temperature;humidity
3994;DHT22;2011;48.238;13.948;2023-03-18T00:00:46;6.80;64.30
3994;DHT22;2011;48.238;13.948;2023-03-18T00:03:13;6.80;64.30
3994;DHT22;2011;48.238;13.948;2023-03-18T00:05:40;6.70;65.00
3994;DHT22;2011;48.238;13.948;2023-03-18T00:08:09;6.70;64.30
3994;DHT22;2011;48.238;13.948;2023-03-18T00:10:36;6.70;64.50
3994;DHT22;2011;48.238;13.948;2023-03-18T00:13:04;6.70;64.70
3994;DHT22;2011;48.238;13.948;2023-03-18T00:15:31;6.70;64.70
3994;DHT22;2011;48.238;13.948;2023-03-18T00:17:58;6.60;64.40
3994;DHT22;2011;48.238;13.948;2023-03-18T00:20:26;6.70;64.60
3994;DHT22;2011;48.238;13.948;2023-03-18T00:23:04;6.70;64.70
3994;DHT22;2011;48.238;13.948;2023-03-18T00:25:35;6.60;64.60
3994;DHT22;2011;48.238;13.948;2023-03-18T00:28:02;6.60;64.50
3994;DHT22;2011;48.238;13.948;2023-03-18T00:30:29;6.50;64.60
3994;DHT22;2011;48.238;13.948;2023-03-18T00:32:56;6.50;64.60
3994;DHT22;2011;48.238;13.948;2023-03-18T00:35:25;6.50;64.90
3994;DHT22;2011;48.238;13.948;2023-03-18T00:37:53;6.40;65.50
3994;DHT22;2011;48.238;13.948;2023-03-18T00:40:20;6.40;64.60
3994;DHT22;2011;48.238;13.948;2023-03-18T00:42:56;6.40;64.70
3994;DHT22;2011;48.238;13.948;2023-03-18T00:45:32;6.30;64.70
3994;DHT22;2011;48.238;13.948;2023-03-18T00:48:00;6.20;65.20
3994;DHT22;2011;48.238;13.948;2023-03-18T00:50:27;6.10;65.60
3994;DHT22;2011;48.238;13.948;2023-03-18T00:52:54;5.90;65.90
3994;DHT22;2011;48.238;13.948;2023-03-18T00:55:21;5.90;66.10
3994;DHT22;2011;48.238;13.948;2023-03-18T00:57:48;5.90;66.10
3994;DHT22;2011;48.238;13.948;2023-03-18T01:00:17;6.00;66.10
3994;DHT22;2011;48.238;13.948;2023-03-18T01:02:45;6.00;66.10
3994;DHT22;2011;48.238;13.948;2023-03-18T01:05:14;6.00;66.00
3994;DHT22;2011;48.238;13.948;2023-03-18T01:07:42;6.00;65.70
3994;DHT22;2011;48.238;13.948;2023-03-18T01:10:10;6.00;65.80
3994;DHT22;2011;48.238;13.948;2023-03-18T01:12:37;6.00;65.70
3994;DHT22;2011;48.238;13.948;2023-03-18T01:15:06;6.00;65.70
3994;DHT22;2011;48.238;13.948;2023-03-18T01:17:35;6.00;66.40
3994;DHT22;2011;48.238;13.948;2023-03-18T01:20:03;6.00;66.70
3994;DHT22;2011;48.238;13.948;2023-03-18T01:22:30;5.80;66.80
3994;DHT22;2011;48.238;13.948;2023-03-18T01:24:58;5.90;66.60
3994;DHT22;2011;48.238;13.948;2023-03-18T01:27:25;5.90;66.40
3994;DHT22;2011;48.238;13.948;2023-03-18T01:29:52;5.80;67.40
3994;DHT22;2011;48.238;13.948;2023-03-18T01:32:19;5.80;67.70
3994;DHT22;2011;48.238;13.948;2023-03-18T01:34:48;5.70;67.50
3994;DHT22;2011;48.238;13.948;2023-03-18T01:37:15;5.70;66.90
3994;DHT22;2011;48.238;13.948;2023-03-18T01:39:42;5.70;67.20
3994;DHT22;2011;48.238;13.948;2023-03-18T01:42:09;5.60;66.70
3994;DHT22;2011;48.238;13.948;2023-03-18T01:44:36;5.70;66.50
3994;DHT22;2011;48.238;13.948;2023-03-18T01:47:03;5.60;66.50
3994;DHT22;2011;48.238;13.948;2023-03-18T01:49:33;5.60;66.60
3994;DHT22;2011;48.238;13.948;2023-03-18T01:52:05;5.60;66.60
3994;DHT22;2011;48.238;13.948;2023-03-18T01:54:40;5.50;66.70
3994;DHT22;2011;48.238;13.948;2023-03-18T01:57:08;5.50;66.70
3994;DHT22;2011;48.238;13.948;2023-03-18T01:59:38;5.50;66.80
3994;DHT22;2011;48.238;13.948;2023-03-18T02:02:08;5.50;67.20
3994;DHT22;2011;48.238;13.948;2023-03-18T02:04:38;5.40;67.30
3994;DHT22;2011;48.238;13.948;2023-03-18T02:07:13;5.40;67.20
3994;DHT22;2011;48.238;13.948;2023-03-18T02:09:40;5.40;67.60
3994;DHT22;2011;48.238;13.948;2023-03-18T02:12:08;5.30;68.10
3994;DHT22;2011;48.238;13.948;2023-03-18T02:14:36;5.20;68.50
3994;DHT22;2011;48.238;13.948;2023-03-18T02:17:08;5.00;68.60
3994;DHT22;2011;48.238;13.948;2023-03-18T02:19:48;4.90;68.80
3994;DHT22;2011;48.238;13.948;2023-03-18T02:22:25;4.90;69.10
3994;DHT22;2011;48.238;13.948;2023-03-18T02:25:02;4.90;68.90
3994;DHT22;2011;48.238;13.948;2023-03-18T02:27:36;4.90;68.90
3994;DHT22;2011;48.238;13.948;2023-03-18T02:30:06;4.90;69.00
3994;DHT22;2011;48.238;13.948;2023-03-18T02:32:36;4.90;69.30
3994;DHT22;2011;48.238;13.948;2023-03-18T02:35:06;4.90;69.40
3994;DHT22;2011;48.238;13.948;2023-03-18T02:37:34;4.80;69.70
3994;DHT22;2011;48.238;13.948;2023-03-18T02:40:15;4.80;69.60
3994;DHT22;2011;48.238;13.948;2023-03-18T02:42:45;4.80;69.90
3994;DHT22;2011;48.238;13.948;2023-03-18T02:45:22;4.70;69.90
3994;DHT22;2011;48.238;13.948;2023-03-18T02:47:53;4.70;70.30
3994;DHT22;2011;48.238;13.948;2023-03-18T02:50:20;4.70;71.20
3994;DHT22;2011;48.238;13.948;2023-03-18T02:52:49;4.60;71.00
3994;DHT22;2011;48.238;13.948;2023-03-18T02:55:16;4.60;70.80
3994;DHT22;2011;48.238;13.948;2023-03-18T02:57:44;4.50;71.50
3994;DHT22;2011;48.238;13.948;2023-03-18T03:00:11;4.50;71.60
3994;DHT22;2011;48.238;13.948;2023-03-18T03:02:39;4.50;71.70
3994;DHT22;2011;48.238;13.948;2023-03-18T03:05:06;4.40;71.90
3994;DHT22;2011;48.238;13.948;2023-03-18T03:07:35;4.40;71.60
3994;DHT22;2011;48.238;13.948;2023-03-18T03:10:04;4.40;71.90
3994;DHT22;2011;48.238;13.948;2023-03-18T03:12:31;4.40;71.70
3994;DHT22;2011;48.238;13.948;2023-03-18T03:15:00;4.30;72.40
3994;DHT22;2011;48.238;13.948;2023-03-18T03:17:27;4.30;72.40
3994;DHT22;2011;48.238;13.948;2023-03-18T03:19:54;4.30;72.00
3994;DHT22;2011;48.238;13.948;2023-03-18T03:22:22;4.30;71.70
3994;DHT22;2011;48.238;13.948;2023-03-18T03:24:49;4.30;71.90
3994;DHT22;2011;48.238;13.948;2023-03-18T03:27:17;4.30;71.80
3994;DHT22;2011;48.238;13.948;2023-03-18T03:29:44;4.30;71.80
3994;DHT22;2011;48.238;13.948;2023-03-18T03:32:13;4.20;71.80
3994;DHT22;2011;48.238;13.948;2023-03-18T03:34:40;4.20;71.90
3994;DHT22;2011;48.238;13.948;2023-03-18T03:37:08;4.20;71.90
3994;DHT22;2011;48.238;13.948;2023-03-18T03:39:35;4.10;71.90
3994;DHT22;2011;48.238;13.948;2023-03-18T03:42:02;4.10;72.20
3994;DHT22;2011;48.238;13.948;2023-03-18T03:44:29;4.10;72.30
3994;DHT22;2011;48.238;13.948;2023-03-18T03:46:56;4.00;72.60
3994;DHT22;2011;48.238;13.948;2023-03-18T03:49:24;4.00;72.70
3994;DHT22;2011;48.238;13.948;2023-03-18T03:51:51;3.90;73.30
3994;DHT22;2011;48.238;13.948;2023-03-18T03:54:18;3.80;73.10
3994;DHT22;2011;48.238;13.948;2023-03-18T03:56:45;3.80;73.10
3994;DHT22;2011;48.238;13.948;2023-03-18T03:59:13;3.80;73.20
3994;DHT22;2011;48.238;13.948;2023-03-18T04:01:40;3.90;74.00
3994;DHT22;2011;48.238;13.948;2023-03-18T04:04:07;3.80;74.10
3994;DHT22;2011;48.238;13.948;2023-03-18T04:06:35;3.80;74.10
3994;DHT22;2011;48.238;13.948;2023-03-18T04:09:03;3.70;74.90
3994;DHT22;2011;48.238;13.948;2023-03-18T04:11:30;3.70;75.20
3994;DHT22;2011;48.238;13.948;2023-03-18T04:13:57;3.60;75.50
3994;DHT22;2011;48.238;13.948;2023-03-18T04:16:24;3.60;74.90
3994;DHT22;2011;48.238;13.948;2023-03-18T04:18:52;3.60;74.40
3994;DHT22;2011;48.238;13.948;2023-03-18T04:21:19;3.60;74.40
3994;DHT22;2011;48.238;13.948;2023-03-18T04:23:47;3.70;74.50
3994;DHT22;2011;48.238;13.948;2023-03-18T04:26:14;3.60;74.90
3994;DHT22;2011;48.238;13.948;2023-03-18T04:28:41;3.60;75.20
3994;DHT22;2011;48.238;13.948;2023-03-18T04:31:08;3.50;75.40
3994;DHT22;2011;48.238;13.948;2023-03-18T04:33:35;3.50;75.30
3994;DHT22;2011;48.238;13.948;2023-03-18T04:36:02;3.50;75.70
3994;DHT22;2011;48.238;13.948;2023-03-18T04:38:29;3.50;75.70
3994;DHT22;2011;48.238;13.948;2023-03-18T04:40:58;3.40;75.50
3994;DHT22;2011;48.238;13.948;2023-03-18T04:43:25;3.40;76.00
3994;DHT22;2011;48.238;13.948;2023-03-18T04:45:52;3.40;76.40
3994;DHT22;2011;48.238;13.948;2023-03-18T04:48:19;3.30;76.50
3994;DHT22;2011;48.238;13.948;2023-03-18T04:50:46;3.30;77.10
3994;DHT22;2011;48.238;13.948;2023-03-18T04:53:13;3.20;77.90
3994;DHT22;2011;48.238;13.948;2023-03-18T04:55:41;3.20;78.20
3994;DHT22;2011;48.238;13.948;2023-03-18T04:58:11;3.20;78.00
3994;DHT22;2011;48.238;13.948;2023-03-18T05:00:38;3.10;78.10
3994;DHT22;2011;48.238;13.948;2023-03-18T05:03:05;3.10;78.60
3994;DHT22;2011;48.238;13.948;2023-03-18T05:05:32;3.00;78.90
3994;DHT22;2011;48.238;13.948;2023-03-18T05:07:59;3.00;79.30
3994;DHT22;2011;48.238;13.948;2023-03-18T05:10:27;2.90;79.80
3994;DHT22;2011;48.238;13.948;2023-03-18T05:12:54;2.90;79.60
3994;DHT22;2011;48.238;13.948;2023-03-18T05:15:22;2.90;79.50
3994;DHT22;2011;48.238;13.948;2023-03-18T05:17:49;2.90;79.80
3994;DHT22;2011;48.238;13.948;2023-03-18T05:20:16;2.90;80.00
3994;DHT22;2011;48.238;13.948;2023-03-18T05:22:43;2.90;80.80
3994;DHT22;2011;48.238;13.948;2023-03-18T05:25:11;2.90;80.80
3994;DHT22;2011;48.238;13.948;2023-03-18T05:27:39;2.80;80.90
3994;DHT22;2011;48.238;13.948;2023-03-18T05:30:07;2.80;81.30
3994;DHT22;2011;48.238;13.948;2023-03-18T05:32:37;2.80;81.40
3994;DHT22;2011;48.238;13.948;2023-03-18T05:35:05;2.80;81.50
3994;DHT22;2011;48.238;13.948;2023-03-18T05:37:32;2.80;81.90
3994;DHT22;2011;48.238;13.948;2023-03-18T05:39:59;2.80;82.30
3994;DHT22;2011;48.238;13.948;2023-03-18T05:42:26;2.90;82.80
3994;DHT22;2011;48.238;13.948;2023-03-18T05:44:53;2.80;83.40
3994;DHT22;2011;48.238;13.948;2023-03-18T05:47:21;2.80;83.60
3994;DHT22;2011;48.238;13.948;2023-03-18T05:49:50;2.80;83.70
3994;DHT22;2011;48.238;13.948;2023-03-18T05:52:16;2.90;83.80
3994;DHT22;2011;48.238;13.948;2023-03-18T05:54:44;2.90;83.70
3994;DHT22;2011;48.238;13.948;2023-03-18T05:57:11;3.00;84.30
3994;DHT22;2011;48.238;13.948;2023-03-18T05:59:38;3.00;84.50
3994;DHT22;2011;48.238;13.948;2023-03-18T06:02:05;3.00;84.90
3994;DHT22;2011;48.238;13.948;2023-03-18T06:04:33;3.10;85.40
3994;DHT22;2011;48.238;13.948;2023-03-18T06:07:01;3.10;85.60
3994;DHT22;2011;48.238;13.948;2023-03-18T06:09:31;3.20;86.10
3994;DHT22;2011;48.238;13.948;2023-03-18T06:11:59;3.20;86.80
3994;DHT22;2011;48.238;13.948;2023-03-18T06:14:26;3.30;86.80
3994;DHT22;2011;48.238;13.948;2023-03-18T06:16:54;3.40;87.00
3994;DHT22;2011;48.238;13.948;2023-03-18T06:19:21;3.50;86.90
3994;DHT22;2011;48.238;13.948;2023-03-18T06:21:49;3.50;86.80
3994;DHT22;2011;48.238;13.948;2023-03-18T06:24:18;3.60;88.00
3994;DHT22;2011;48.238;13.948;2023-03-18T06:26:45;3.70;88.30
3994;DHT22;2011;48.238;13.948;2023-03-18T06:29:12;3.80;88.60
3994;DHT22;2011;48.238;13.948;2023-03-18T06:31:39;3.80;88.70
3994;DHT22;2011;48.238;13.948;2023-03-18T06:34:06;3.90;88.80
3994;DHT22;2011;48.238;13.948;2023-03-18T06:36:34;4.00;89.40
3994;DHT22;2011;48.238;13.948;2023-03-18T06:39:01;4.00;89.60
3994;DHT22;2011;48.238;13.948;2023-03-18T06:41:29;4.10;89.30
3994;DHT22;2011;48.238;13.948;2023-03-18T06:43:56;4.30;89.60
3994;DHT22;2011;48.238;13.948;2023-03-18T06:46:23;4.40;90.00
3994;DHT22;2011;48.238;13.948;2023-03-18T06:48:51;4.50;90.20
3994;DHT22;2011;48.238;13.948;2023-03-18T06:51:18;4.70;90.30
3994;DHT22;2011;48.238;13.948;2023-03-18T06:53:45;4.80;90.10
3994;DHT22;2011;48.238;13.948;2023-03-18T06:56:13;5.00;90.30
3994;DHT22;2011;48.238;13.948;2023-03-18T06:58:42;5.00;90.40
3994;DHT22;2011;48.238;13.948;2023-03-18T07:01:10;5.10;90.50
3994;DHT22;2011;48.238;13.948;2023-03-18T07:03:38;5.20;90.30
3994;DHT22;2011;48.238;13.948;2023-03-18T07:06:06;5.30;90.50
3994;DHT22;2011;48.238;13.948;2023-03-18T07:08:34;5.40;90.60
3994;DHT22;2011;48.238;13.948;2023-03-18T07:11:02;5.50;90.60
3994;DHT22;2011;48.238;13.948;2023-03-18T07:13:29;5.60;90.50
3994;DHT22;2011;48.238;13.948;2023-03-18T07:15:57;5.80;90.10
3994;DHT22;2011;48.238;13.948;2023-03-18T07:18:25;5.90;90.00
3994;DHT22;2011;48.238;13.948;2023-03-18T07:20:52;6.10;90.10
3994;DHT22;2011;48.238;13.948;2023-03-18T07:23:19;6.30;90.10
3994;DHT22;2011;48.238;13.948;2023-03-18T07:25:46;6.30;86.90
3994;DHT22;2011;48.238;13.948;2023-03-18T07:28:13;6.50;85.80
3994;DHT22;2011;48.238;13.948;2023-03-18T07:30:41;6.50;83.80
3994;DHT22;2011;48.238;13.948;2023-03-18T07:33:09;6.60;83.00
3994;DHT22;2011;48.238;13.948;2023-03-18T07:35:36;6.70;82.70
3994;DHT22;2011;48.238;13.948;2023-03-18T07:38:05;6.80;82.80
3994;DHT22;2011;48.238;13.948;2023-03-18T07:40:32;6.90;82.90
3994;DHT22;2011;48.238;13.948;2023-03-18T07:42:59;7.10;83.30
3994;DHT22;2011;48.238;13.948;2023-03-18T07:45:26;7.20;82.10
3994;DHT22;2011;48.238;13.948;2023-03-18T07:47:53;7.40;81.50
3994;DHT22;2011;48.238;13.948;2023-03-18T07:50:22;7.50;80.80
3994;DHT22;2011;48.238;13.948;2023-03-18T07:52:49;7.50;80.20
3994;DHT22;2011;48.238;13.948;2023-03-18T07:55:16;7.50;78.90
3994;DHT22;2011;48.238;13.948;2023-03-18T07:57:44;7.60;80.20
3994;DHT22;2011;48.238;13.948;2023-03-18T08:00:13;7.60;79.60
3994;DHT22;2011;48.238;13.948;2023-03-18T08:02:41;7.70;80.30
3994;DHT22;2011;48.238;13.948;2023-03-18T08:05:08;7.80;79.60
3994;DHT22;2011;48.238;13.948;2023-03-18T08:07:37;8.00;79.30
3994;DHT22;2011;48.238;13.948;2023-03-18T08:10:04;8.20;79.30
3994;DHT22;2011;48.238;13.948;2023-03-18T08:12:33;8.20;78.60
3994;DHT22;2011;48.238;13.948;2023-03-18T08:15:00;8.30;79.60
3994;DHT22;2011;48.238;13.948;2023-03-18T08:17:27;8.30;79.70
3994;DHT22;2011;48.238;13.948;2023-03-18T08:19:54;8.40;80.00
3994;DHT22;2011;48.238;13.948;2023-03-18T08:22:21;8.40;79.50
3994;DHT22;2011;48.238;13.948;2023-03-18T08:24:51;8.50;79.20
3994;DHT22;2011;48.238;13.948;2023-03-18T08:27:18;8.50;79.10
3994;DHT22;2011;48.238;13.948;2023-03-18T08:29:45;8.70;79.30
3994;DHT22;2011;48.238;13.948;2023-03-18T08:32:12;8.80;79.10
3994;DHT22;2011;48.238;13.948;2023-03-18T08:34:39;8.90;79.40
3994;DHT22;2011;48.238;13.948;2023-03-18T08:37:07;9.00;79.30
3994;DHT22;2011;48.238;13.948;2023-03-18T08:39:34;9.00;78.20
3994;DHT22;2011;48.238;13.948;2023-03-18T08:42:03;9.10;78.20
3994;DHT22;2011;48.238;13.948;2023-03-18T08:44:30;9.20;77.90
3994;DHT22;2011;48.238;13.948;2023-03-18T08:46:57;9.30;77.50
3994;DHT22;2011;48.238;13.948;2023-03-18T08:49:24;9.30;77.60
3994;DHT22;2011;48.238;13.948;2023-03-18T08:51:51;9.30;77.70
3994;DHT22;2011;48.238;13.948;2023-03-18T08:54:19;9.40;77.80
3994;DHT22;2011;48.238;13.948;2023-03-18T08:56:46;9.40;77.30
3994;DHT22;2011;48.238;13.948;2023-03-18T08:59:14;9.50;77.00
3994;DHT22;2011;48.238;13.948;2023-03-18T09:01:42;9.50;76.30
3994;DHT22;2011;48.238;13.948;2023-03-18T09:04:09;9.60;76.60
3994;DHT22;2011;48.238;13.948;2023-03-18T09:06:36;9.70;77.20
3994;DHT22;2011;48.238;13.948;2023-03-18T09:09:03;9.80;76.60
3994;DHT22;2011;48.238;13.948;2023-03-18T09:11:30;9.90;76.60
3994;DHT22;2011;48.238;13.948;2023-03-18T09:13:57;10.00;75.20
3994;DHT22;2011;48.238;13.948;2023-03-18T09:16:25;10.10;76.20
3994;DHT22;2011;48.238;13.948;2023-03-18T09:18:53;10.20;76.00
3994;DHT22;2011;48.238;13.948;2023-03-18T09:21:20;10.30;76.90
3994;DHT22;2011;48.238;13.948;2023-03-18T09:23:47;10.40;76.90
3994;DHT22;2011;48.238;13.948;2023-03-18T09:26:15;10.50;77.20
3994;DHT22;2011;48.238;13.948;2023-03-18T09:28:42;10.50;76.40
3994;DHT22;2011;48.238;13.948;2023-03-18T09:31:09;10.60;75.70
3994;DHT22;2011;48.238;13.948;2023-03-18T09:33:39;10.80;76.10
3994;DHT22;2011;48.238;13.948;2023-03-18T09:36:07;10.80;76.30
3994;DHT22;2011;48.238;13.948;2023-03-18T09:38:34;10.90;76.10
3994;DHT22;2011;48.238;13.948;2023-03-18T09:41:06;11.10;76.00
3994;DHT22;2011;48.238;13.948;2023-03-18T09:43:43;11.10;76.00
3994;DHT22;2011;48.238;13.948;2023-03-18T09:46:22;11.20;75.60
3994;DHT22;2011;48.238;13.948;2023-03-18T09:49:07;11.30;75.40
3994;DHT22;2011;48.238;13.948;2023-03-18T09:51:46;11.30;75.60
3994;DHT22;2011;48.238;13.948;2023-03-18T09:54:22;11.40;75.60
3994;DHT22;2011;48.238;13.948;2023-03-18T09:56:51;11.40;75.60
3994;DHT22;2011;48.238;13.948;2023-03-18T09:59:21;11.50;76.00
3994;DHT22;2011;48.238;13.948;2023-03-18T10:01:52;11.60;75.80
3994;DHT22;2011;48.238;13.948;2023-03-18T10:04:24;11.70;75.10
3994;DHT22;2011;48.238;13.948;2023-03-18T10:06:56;11.80;74.80
3994;DHT22;2011;48.238;13.948;2023-03-18T10:09:27;11.90;74.70
3994;DHT22;2011;48.238;13.948;2023-03-18T10:12:03;11.90;75.00
3994;DHT22;2011;48.238;13.948;2023-03-18T10:14:36;11.90;73.40
3994;DHT22;2011;48.238;13.948;2023-03-18T10:17:13;11.90;74.00
3994;DHT22;2011;48.238;13.948;2023-03-18T10:19:46;12.00;74.50
3994;DHT22;2011;48.238;13.948;2023-03-18T10:22:23;12.10;74.90
3994;DHT22;2011;48.238;13.948;2023-03-18T10:24:58;12.20;75.30
3994;DHT22;2011;48.238;13.948;2023-03-18T10:27:40;12.30;74.50
3994;DHT22;2011;48.238;13.948;2023-03-18T10:30:27;12.40;73.20
3994;DHT22;2011;48.238;13.948;2023-03-18T10:33:00;12.40;74.50
3994;DHT22;2011;48.238;13.948;2023-03-18T10:35:37;12.50;74.90
3994;DHT22;2011;48.238;13.948;2023-03-18T10:38:15;12.60;74.50
3994;DHT22;2011;48.238;13.948;2023-03-18T10:40:44;12.70;74.40
3994;DHT22;2011;48.238;13.948;2023-03-18T10:43:15;12.80;74.90
3994;DHT22;2011;48.238;13.948;2023-03-18T10:45:45;12.90;74.50
3994;DHT22;2011;48.238;13.948;2023-03-18T10:48:17;13.00;74.20
3994;DHT22;2011;48.238;13.948;2023-03-18T10:50:55;13.10;73.90
3994;DHT22;2011;48.238;13.948;2023-03-18T10:53:26;13.20;74.10
3994;DHT22;2011;48.238;13.948;2023-03-18T10:55:58;13.20;73.50
3994;DHT22;2011;48.238;13.948;2023-03-18T10:58:29;13.30;74.50
3994;DHT22;2011;48.238;13.948;2023-03-18T11:00:56;13.30;74.60
3994;DHT22;2011;48.238;13.948;2023-03-18T11:03:27;13.40;74.70
3994;DHT22;2011;48.238;13.948;2023-03-18T11:05:59;13.50;73.90
3994;DHT22;2011;48.238;13.948;2023-03-18T11:08:32;13.60;74.80
3994;DHT22;2011;48.238;13.948;2023-03-18T11:11:20;13.60;74.70
3994;DHT22;2011;48.238;13.948;2023-03-18T11:13:50;13.70;74.20
3994;DHT22;2011;48.238;13.948;2023-03-18T11:16:24;13.80;74.20
3994;DHT22;2011;48.238;13.948;2023-03-18T11:18:54;13.90;74.40
3994;DHT22;2011;48.238;13.948;2023-03-18T11:21:23;13.90;74.40
3994;DHT22;2011;48.238;13.948;2023-03-18T11:23:58;14.00;75.00
3994;DHT22;2011;48.238;13.948;2023-03-18T11:26:52;14.20;74.90
3994;DHT22;2011;48.238;13.948;2023-03-18T11:29:22;14.30;75.30
3994;DHT22;2011;48.238;13.948;2023-03-18T11:31:53;14.40;74.80
3994;DHT22;2011;48.238;13.948;2023-03-18T11:34:23;14.40;74.60
3994;DHT22;2011;48.238;13.948;2023-03-18T11:36:57;14.50;74.70
3994;DHT22;2011;48.238;13.948;2023-03-18T11:39:31;14.60;74.40
3994;DHT22;2011;48.238;13.948;2023-03-18T11:42:14;14.70;74.30
3994;DHT22;2011;48.238;13.948;2023-03-18T11:44:42;14.80;74.30
3994;DHT22;2011;48.238;13.948;2023-03-18T11:47:12;14.90;74.60
3994;DHT22;2011;48.238;13.948;2023-03-18T11:49:41;14.90;73.60
3994;DHT22;2011;48.238;13.948;2023-03-18T11:52:24;15.00;74.30
3994;DHT22;2011;48.238;13.948;2023-03-18T11:55:20;15.00;74.30
3994;DHT22;2011;48.238;13.948;2023-03-18T11:58:14;15.00;73.90
3994;DHT22;2011;48.238;13.948;2023-03-18T12:00:50;15.10;74.80
3994;DHT22;2011;48.238;13.948;2023-03-18T12:06:30;15.20;74.00
3994;DHT22;2011;48.238;13.948;2023-03-18T12:09:08;15.30;75.00
3994;DHT22;2011;48.238;13.948;2023-03-18T12:11:50;15.40;74.30
3994;DHT22;2011;48.238;13.948;2023-03-18T12:14:29;15.40;74.70
3994;DHT22;2011;48.238;13.948;2023-03-18T12:17:09;15.50;74.80
3994;DHT22;2011;48.238;13.948;2023-03-18T12:25:51;15.80;73.50
3994;DHT22;2011;48.238;13.948;2023-03-18T12:28:31;15.90;72.20
3994;DHT22;2011;48.238;13.948;2023-03-18T12:31:10;16.00;73.60
3994;DHT22;2011;48.238;13.948;2023-03-18T12:33:50;16.10;74.10
3994;DHT22;2011;48.238;13.948;2023-03-18T12:36:36;16.20;74.50
3994;DHT22;2011;48.238;13.948;2023-03-18T12:42:31;16.30;72.80
3994;DHT22;2011;48.238;13.948;2023-03-18T12:45:05;16.30;74.10
3994;DHT22;2011;48.238;13.948;2023-03-18T12:47:37;16.30;74.10
3994;DHT22;2011;48.238;13.948;2023-03-18T12:50:14;16.30;74.20
3994;DHT22;2011;48.238;13.948;2023-03-18T12:52:44;16.40;74.60
3994;DHT22;2011;48.238;13.948;2023-03-18T12:55:15;16.30;74.00
3994;DHT22;2011;48.238;13.948;2023-03-18T12:57:48;16.40;74.30
3994;DHT22;2011;48.238;13.948;2023-03-18T13:00:19;16.50;74.50
3994;DHT22;2011;48.238;13.948;2023-03-18T13:02:55;16.50;73.90
3994;DHT22;2011;48.238;13.948;2023-03-18T13:05:29;16.70;74.10
3994;DHT22;2011;48.238;13.948;2023-03-18T13:08:21;16.70;73.90
3994;DHT22;2011;48.238;13.948;2023-03-18T13:10:53;16.80;74.40
3994;DHT22;2011;48.238;13.948;2023-03-18T13:13:24;16.90;74.60
3994;DHT22;2011;48.238;13.948;2023-03-18T13:15:53;16.90;73.90
3994;DHT22;2011;48.238;13.948;2023-03-18T13:18:25;17.00;74.50
3994;DHT22;2011;48.238;13.948;2023-03-18T13:20:56;17.10;74.40
3994;DHT22;2011;48.238;13.948;2023-03-18T13:23:57;17.20;73.60
3994;DHT22;2011;48.238;13.948;2023-03-18T13:26:39;17.20;72.70
3994;DHT22;2011;48.238;13.948;2023-03-18T13:29:19;17.30;73.40
3994;DHT22;2011;48.238;13.948;2023-03-18T13:31:53;17.30;73.80
3994;DHT22;2011;48.238;13.948;2023-03-18T13:34:57;17.40;73.00
3994;DHT22;2011;48.238;13.948;2023-03-18T13:37:48;17.50;72.90
3994;DHT22;2011;48.238;13.948;2023-03-18T13:40:29;17.50;71.00
3994;DHT22;2011;48.238;13.948;2023-03-18T13:43:00;17.50;71.50
3994;DHT22;2011;48.238;13.948;2023-03-18T13:45:32;17.50;72.50
3994;DHT22;2011;48.238;13.948;2023-03-18T13:48:01;17.60;72.20
3994;DHT22;2011;48.238;13.948;2023-03-18T13:50:34;17.60;72.50
3994;DHT22;2011;48.238;13.948;2023-03-18T13:53:03;17.70;72.00
3994;DHT22;2011;48.238;13.948;2023-03-18T13:55:33;17.90;72.70
3994;DHT22;2011;48.238;13.948;2023-03-18T13:58:19;18.10;71.10
3994;DHT22;2011;48.238;13.948;2023-03-18T14:04:28;18.30;69.70
3994;DHT22;2011;48.238;13.948;2023-03-18T14:07:13;18.40;71.00
3994;DHT22;2011;48.238;13.948;2023-03-18T14:09:52;18.40;69.60
3994;DHT22;2011;48.238;13.948;2023-03-18T14:12:36;18.40;69.10
3994;DHT22;2011;48.238;13.948;2023-03-18T14:15:36;18.40;69.60
3994;DHT22;2011;48.238;13.948;2023-03-18T14:18:23;18.50;70.50
3994;DHT22;2011;48.238;13.948;2023-03-18T14:20:59;18.60;71.20
3994;DHT22;2011;48.238;13.948;2023-03-18T14:23:38;18.70;70.40
3994;DHT22;2011;48.238;13.948;2023-03-18T14:26:09;18.70;71.00
3994;DHT22;2011;48.238;13.948;2023-03-18T14:28:45;18.80;71.30
3994;DHT22;2011;48.238;13.948;2023-03-18T14:31:32;18.90;71.30
3994;DHT22;2011;48.238;13.948;2023-03-18T14:37:24;19.00;70.90
3994;DHT22;2011;48.238;13.948;2023-03-18T14:39:58;19.10;69.70
3994;DHT22;2011;48.238;13.948;2023-03-18T14:42:42;19.10;69.80
3994;DHT22;2011;48.238;13.948;2023-03-18T14:45:16;19.10;69.10
3994;DHT22;2011;48.238;13.948;2023-03-18T14:47:48;19.10;68.20
3994;DHT22;2011;48.238;13.948;2023-03-18T14:50:21;19.00;69.00
3994;DHT22;2011;48.238;13.948;2023-03-18T14:52:53;19.00;68.80
3994;DHT22;2011;48.238;13.948;2023-03-18T14:55:24;19.00;69.50
3994;DHT22;2011;48.238;13.948;2023-03-18T14:57:53;18.90;69.20
3994;DHT22;2011;48.238;13.948;2023-03-18T15:00:21;18.90;67.10
3994;DHT22;2011;48.238;13.948;2023-03-18T15:02:56;18.70;65.90
3994;DHT22;2011;48.238;13.948;2023-03-18T15:05:25;18.50;65.40
3994;DHT22;2011;48.238;13.948;2023-03-18T15:07:56;18.50;66.00
3994;DHT22;2011;48.238;13.948;2023-03-18T15:10:24;18.50;66.80
3994;DHT22;2011;48.238;13.948;2023-03-18T15:13:02;18.50;66.80
3994;DHT22;2011;48.238;13.948;2023-03-18T15:15:31;18.60;66.70
3994;DHT22;2011;48.238;13.948;2023-03-18T15:18:10;18.70;66.80
3994;DHT22;2011;48.238;13.948;2023-03-18T15:20:41;18.70;66.30
3994;DHT22;2011;48.238;13.948;2023-03-18T15:23:12;18.80;66.80
3994;DHT22;2011;48.238;13.948;2023-03-18T15:25:42;18.90;65.20
3994;DHT22;2011;48.238;13.948;2023-03-18T15:28:14;18.80;64.00
3994;DHT22;2011;48.238;13.948;2023-03-18T15:30:50;18.70;64.10
3994;DHT22;2011;48.238;13.948;2023-03-18T15:33:21;18.70;64.60
3994;DHT22;2011;48.238;13.948;2023-03-18T15:35:53;18.80;64.90
3994;DHT22;2011;48.238;13.948;2023-03-18T15:38:25;18.90;66.20
3994;DHT22;2011;48.238;13.948;2023-03-18T15:40:53;18.90;64.30
3994;DHT22;2011;48.238;13.948;2023-03-18T15:43:29;18.80;64.90
3994;DHT22;2011;48.238;13.948;2023-03-18T15:46:05;18.70;63.80
3994;DHT22;2011;48.238;13.948;2023-03-18T15:48:35;18.70;63.80
3994;DHT22;2011;48.238;13.948;2023-03-18T15:51:05;18.60;63.80
3994;DHT22;2011;48.238;13.948;2023-03-18T15:53:41;18.70;64.80
3994;DHT22;2011;48.238;13.948;2023-03-18T15:56:13;18.80;64.30
3994;DHT22;2011;48.238;13.948;2023-03-18T15:58:42;18.80;64.10
3994;DHT22;2011;48.238;13.948;2023-03-18T16:01:14;18.90;63.80
3994;DHT22;2011;48.238;13.948;2023-03-18T16:03:42;19.00;63.60
3994;DHT22;2011;48.238;13.948;2023-03-18T16:06:13;19.10;63.50
3994;DHT22;2011;48.238;13.948;2023-03-18T16:08:42;19.20;63.60
3994;DHT22;2011;48.238;13.948;2023-03-18T16:11:11;19.30;63.70
3994;DHT22;2011;48.238;13.948;2023-03-18T16:13:39;19.40;63.50
3994;DHT22;2011;48.238;13.948;2023-03-18T16:16:15;19.40;63.10
3994;DHT22;2011;48.238;13.948;2023-03-18T16:18:43;19.40;63.70
3994;DHT22;2011;48.238;13.948;2023-03-18T16:21:12;19.30;63.20
3994;DHT22;2011;48.238;13.948;2023-03-18T16:23:39;19.20;63.40
3994;DHT22;2011;48.238;13.948;2023-03-18T16:26:13;19.20;63.40
3994;DHT22;2011;48.238;13.948;2023-03-18T16:28:41;19.10;63.50
3994;DHT22;2011;48.238;13.948;2023-03-18T16:31:08;18.70;63.10
3994;DHT22;2011;48.238;13.948;2023-03-18T16:33:35;18.60;63.80
3994;DHT22;2011;48.238;13.948;2023-03-18T16:36:04;18.40;63.40